Time;durP1;ratioP1;P1;durP2;ratioP2;P2;SDS_P1;SDS_P2;PMS_P1;PMS_P2;Temp;Humidity;BMP_temperature;BMP_pressure;BME280_temperature;BME280_humidity;BME280_pressure;Samples;Min_cycle;Max_cycle;Signal;HPM_P1;HPM_P2
2022/06/10 00:02:43;;;;;;;2.42;1.10;;;14.80;99.90;;;;;;20704097;28;20440;-41
2022/06/10 00:12:44;;;;;;;3.08;0.90;;;14.80;99.90;;;;;;20701520;28;20389;-41
2022/06/10 00:22:45;;;;;;;4.20;1.83;;;14.80;99.90;;;;;;20712355;28;20056;-41
2022/06/10 00:32:46;;;;;;;2.15;0.70;;;14.80;99.90;;;;;;20711944;28;20073;-41
2022/06/10 00:42:47;;;;;;;3.97;0.90;;;14.80;99.90;;;;;;20711587;28;20037;-41
2022/06/10 00:52:54;;;;;;;0.93;0.50;;;14.80;99.90;;;;;;20712364;28;20531;-41
2022/06/10 01:02:56;;;;;;;2.38;0.65;;;14.70;99.90;;;;;;20721828;28;20092;-41
2022/06/10 01:13:03;;;;;;;4.30;2.17;;;14.80;99.90;;;;;;20717216;28;20042;-41
2022/06/10 01:23:32;;;;;;;3.63;1.47;;;14.80;99.90;;;;;;20723082;28;20058;-41
2022/06/10 01:33:53;;;;;;;2.42;0.70;;;14.80;99.90;;;;;;20711049;28;20382;-41
2022/06/10 01:44:09;;;;;;;2.15;0.73;;;14.90;99.90;;;;;;20714526;28;20049;-41
2022/06/10 01:54:24;;;;;;;3.70;0.85;;;15.10;99.90;;;;;;20719642;28;22030;-41
2022/06/10 02:04:30;;;;;;;2.97;0.95;;;15.20;99.90;;;;;;20713575;28;20258;-41
2022/06/10 02:14:39;;;;;;;1.67;0.80;;;15.30;99.90;;;;;;20712864;28;20533;-41
2022/06/10 02:24:50;;;;;;;4.07;0.80;;;15.30;99.90;;;;;;20714750;28;20053;-41
2022/06/10 02:34:51;;;;;;;3.08;0.55;;;15.40;99.90;;;;;;20684429;28;20037;-41
2022/06/10 02:45:29;;;;;;;2.25;0.70;;;15.40;99.90;;;;;;20714945;28;20045;-41
2022/06/10 02:55:31;;;;;;;1.85;0.80;;;15.30;99.90;;;;;;20707293;28;20052;-41
2022/06/10 03:05:49;;;;;;;1.95;1.00;;;15.50;99.90;;;;;;20715628;28;20454;-41
2022/06/10 03:16:11;;;;;;;1.70;0.63;;;15.60;99.90;;;;;;20703367;28;20735;-41
2022/06/10 03:26:40;;;;;;;1.85;0.80;;;15.50;99.90;;;;;;20707832;28;20560;-41
2022/06/10 03:36:44;;;;;;;1.88;0.68;;;15.50;99.90;;;;;;20711040;28;20034;-41
2022/06/10 03:46:47;;;;;;;2.45;0.95;;;15.80;99.90;;;;;;20703826;28;20405;-41
2022/06/10 03:56:51;;;;;;;3.10;1.40;;;15.80;99.90;;;;;;20705201;28;20050;-41
2022/06/10 04:06:52;;;;;;;1.45;0.55;;;15.80;99.90;;;;;;20699546;28;20046;-41
2022/06/10 04:16:54;;;;;;;4.22;1.02;;;15.80;99.90;;;;;;20729772;28;20561;-41
2022/06/10 04:26:55;;;;;;;1.45;0.70;;;15.80;99.90;;;;;;20716739;28;20049;-41
2022/06/10 04:36:56;;;;;;;2.03;1.10;;;15.70;99.90;;;;;;20726332;28;21351;-41
2022/06/10 04:46:57;;;;;;;1.67;0.65;;;15.70;99.90;;;;;;20740510;28;20072;-41
2022/06/10 04:56:58;;;;;;;3.10;0.57;;;15.50;99.90;;;;;;20740090;28;20029;-41
2022/06/10 05:07:00;;;;;;;2.60;0.70;;;15.60;99.90;;;;;;20728381;28;20049;-41
2022/06/10 05:17:03;;;;;;;1.80;0.73;;;15.70;99.90;;;;;;20723992;28;20064;-41
2022/06/10 05:27:04;;;;;;;2.85;0.70;;;15.60;99.90;;;;;;20721097;28;20053;-41
2022/06/10 05:37:05;;;;;;;1.80;0.93;;;15.70;99.90;;;;;;20718211;28;20049;-41
2022/06/10 05:47:08;;;;;;;1.60;0.82;;;15.90;99.90;;;;;;20704816;28;20061;-41
2022/06/10 05:57:10;;;;;;;3.72;1.13;;;16.10;99.90;;;;;;20720301;28;20046;-41
2022/06/10 06:07:20;;;;;;;1.80;0.60;;;16.10;99.90;;;;;;20725445;28;20649;-45
2022/06/10 06:17:21;;;;;;;1.15;0.40;;;16.10;99.90;;;;;;20707995;28;20503;-41
2022/06/10 06:27:22;;;;;;;1.75;0.85;;;16.00;99.90;;;;;;20701143;28;20384;-40
2022/06/10 06:37:24;;;;;;;2.22;0.70;;;16.10;99.90;;;;;;20696779;28;20145;-41
2022/06/10 06:47:25;;;;;;;4.97;1.25;;;16.20;99.90;;;;;;20705929;28;20057;-41
2022/06/10 06:57:26;;;;;;;1.83;0.77;;;16.40;99.90;;;;;;20701949;28;20369;-41
2022/06/10 07:07:28;;;;;;;3.25;0.63;;;16.40;99.90;;;;;;20722408;28;20045;-40
2022/06/10 07:17:29;;;;;;;2.03;1.10;;;16.70;99.90;;;;;;20728229;28;20381;-41
2022/06/10 07:27:30;;;;;;;1.73;0.68;;;17.00;99.90;;;;;;20722116;28;20052;-41
2022/06/10 07:37:31;;;;;;;1.80;0.70;;;17.20;99.90;;;;;;20731494;28;20135;-41
2022/06/10 07:47:32;;;;;;;1.83;0.68;;;17.40;99.90;;;;;;20744274;28;20715;-41
2022/06/10 07:57:33;;;;;;;3.03;0.90;;;17.60;99.90;;;;;;20752752;28;20362;-41
2022/06/10 08:07:38;;;;;;;1.45;0.65;;;17.80;99.90;;;;;;20742939;28;20041;-39
2022/06/10 08:17:40;;;;;;;2.15;1.10;;;18.00;99.90;;;;;;20744421;28;20068;-39
2022/06/10 08:27:41;;;;;;;2.13;1.10;;;18.50;99.90;;;;;;20733860;28;20045;-38
2022/06/10 08:37:42;;;;;;;2.13;0.80;;;18.90;99.90;;;;;;20731435;28;20038;-41
2022/06/10 08:48:16;;;;;;;3.67;0.77;;;19.10;99.90;;;;;;20737362;28;20697;-38
2022/06/10 08:58:32;;;;;;;2.00;0.90;;;19.10;99.90;;;;;;20732143;28;21717;-38
2022/06/10 09:08:44;;;;;;;9.95;1.85;;;19.20;99.90;;;;;;20733368;28;20432;-38
2022/06/10 09:19:02;;;;;;;3.17;1.10;;;19.60;99.90;;;;;;20734428;28;20546;-38
2022/06/10 09:29:03;;;;;;;2.05;0.70;;;20.10;99.90;;;;;;20735082;28;20599;-39
2022/06/10 09:40:35;;;;;;;3.10;0.90;;;20.30;99.90;;;;;;20731443;28;20061;-39
2022/06/10 09:49:46;;;;;;;3.13;0.90;;;20.60;99.90;;;;;;20738359;28;21475;-38
2022/06/10 10:00:13;;;;;;;1.65;0.95;;;20.80;99.90;;;;;;20743791;28;20167;-38
2022/06/10 10:10:22;;;;;;;2.35;1.23;;;20.70;99.90;;;;;;20749253;28;20057;-39
2022/06/10 10:21:02;;;;;;;2.47;0.50;;;20.80;99.90;;;;;;20745958;28;20659;-38
2022/06/10 10:31:20;;;;;;;1.95;0.80;;;21.20;99.90;;;;;;20739578;28;20450;-39
2022/06/10 10:41:21;;;;;;;2.40;0.90;;;21.20;99.90;;;;;;20721705;28;20258;-39
2022/06/10 10:51:41;;;;;;;1.70;0.50;;;21.50;99.90;;;;;;20719874;28;20061;-38
2022/06/10 11:01:45;;;;;;;2.83;0.60;;;21.20;99.90;;;;;;20730588;28;20049;-39
2022/06/10 11:11:47;;;;;;;1.38;0.50;;;20.80;99.90;;;;;;20733301;28;20042;-39
2022/06/10 11:22:03;;;;;;;3.25;0.68;;;20.60;99.90;;;;;;20731818;28;20618;-38
2022/06/10 11:32:05;;;;;;;1.92;0.40;;;21.20;99.90;;;;;;20723416;28;20484;-39
2022/06/10 11:42:25;;;;;;;0.65;0.30;;;21.10;99.90;;;;;;20728635;28;20062;-39
2022/06/10 11:52:33;;;;;;;1.05;0.60;;;21.40;99.90;;;;;;20724893;28;20045;-39
2022/06/10 12:02:43;;;;;;;1.75;0.70;;;21.40;99.90;;;;;;20733247;28;20041;-39
2022/06/10 12:12:47;;;;;;;2.95;0.80;;;21.90;99.90;;;;;;20706770;28;20442;-39
2022/06/10 12:22:48;;;;;;;1.98;0.60;;;22.40;99.90;;;;;;20715430;28;20038;-39
2022/06/10 12:32:49;;;;;;;2.40;0.80;;;22.50;99.90;;;;;;20720437;28;20041;-39
2022/06/10 12:43:02;;;;;;;2.00;1.05;;;22.90;99.90;;;;;;20737856;28;20046;-39
2022/06/10 12:53:06;;;;;;;1.70;0.90;;;22.90;99.90;;;;;;20742830;28;20045;-39
2022/06/10 13:03:12;;;;;;;1.40;0.63;;;22.40;99.90;;;;;;20719826;28;20527;-39
2022/06/10 13:13:24;;;;;;;4.60;0.85;;;21.90;99.90;;;;;;20731441;28;20443;-39
2022/06/10 13:23:27;;;;;;;2.00;0.55;;;22.20;99.90;;;;;;20735886;28;20412;-39
2022/06/10 13:33:28;;;;;;;2.13;0.60;;;22.30;99.90;;;;;;20733462;28;20302;-39
2022/06/10 13:43:32;;;;;;;1.85;0.60;;;22.50;99.90;;;;;;20733583;28;20697;-39
2022/06/10 13:53:42;;;;;;;1.90;0.73;;;22.70;99.90;;;;;;20732488;28;20089;-39
2022/06/10 14:03:55;;;;;;;1.95;0.80;;;22.50;99.90;;;;;;20721810;28;20068;-39
2022/06/10 14:14:03;;;;;;;1.75;0.68;;;22.70;99.90;;;;;;20684823;28;20601;-39
2022/06/10 14:24:18;;;;;;;1.08;0.60;;;22.40;99.90;;;;;;20701865;28;20596;-39
2022/06/10 14:34:23;;;;;;;1.73;0.90;;;22.50;99.90;;;;;;20712425;28;21530;-39
2022/06/10 14:44:44;;;;;;;5.05;0.98;;;22.70;99.90;;;;;;20714042;28;20045;-39
2022/06/10 14:54:45;;;;;;;1.85;0.88;;;22.50;99.90;;;;;;20712474;28;20405;-39
2022/06/10 15:15:10;;;;;;;2.92;0.98;;;22.60;99.90;;;;;;20709796;28;20131;-39
2022/06/10 15:25:17;;;;;;;1.50;0.63;;;22.30;99.90;;;;;;20705526;28;20680;-39
2022/06/10 15:45:41;;;;;;;2.97;0.95;;;21.70;99.90;;;;;;20716342;28;21107;-39
2022/06/10 16:06:01;;;;;;;1.52;0.60;;;21.50;99.90;;;;;;20696110;28;20062;-39
2022/06/10 16:16:03;;;;;;;1.67;1.00;;;21.60;99.90;;;;;;20708720;28;20088;-39
2022/06/10 16:26:12;;;;;;;1.90;0.77;;;21.40;99.90;;;;;;20724618;28;20050;-39
2022/06/10 16:36:15;;;;;;;2.95;0.80;;;21.40;99.90;;;;;;20690236;28;20076;-39
2022/06/10 16:46:19;;;;;;;1.50;0.60;;;21.40;99.90;;;;;;20704830;28;20042;-39
2022/06/10 16:56:25;;;;;;;1.60;0.70;;;21.20;99.90;;;;;;20711762;28;20449;-39
2022/06/10 17:06:26;;;;;;;2.55;1.00;;;21.50;99.90;;;;;;20700703;28;20050;-39
2022/06/10 17:16:32;;;;;;;2.33;0.90;;;21.40;99.90;;;;;;20709255;28;20049;-39
2022/06/10 17:26:45;;;;;;;1.27;0.60;;;21.50;99.90;;;;;;20706888;28;20362;-39
2022/06/10 17:36:46;;;;;;;1.88;1.00;;;21.50;99.90;;;;;;20696431;28;20045;-39
2022/06/10 17:46:49;;;;;;;1.77;0.88;;;21.50;99.90;;;;;;20702094;28;20046;-39
2022/06/10 17:56:51;;;;;;;2.20;0.90;;;21.30;99.90;;;;;;20704385;28;20034;-39
2022/06/10 18:06:54;;;;;;;1.38;0.75;;;21.20;99.90;;;;;;20707651;28;20136;-39
2022/06/10 18:16:55;;;;;;;2.17;0.73;;;21.20;99.90;;;;;;20708000;28;20056;-39
2022/06/10 18:26:59;;;;;;;2.15;0.60;;;21.20;99.90;;;;;;20687517;28;20064;-39
2022/06/10 18:37:00;;;;;;;2.08;1.17;;;21.00;99.90;;;;;;20681112;28;20056;-39
2022/06/10 18:47:03;;;;;;;2.38;0.82;;;21.00;99.90;;;;;;20677971;28;20545;-39
2022/06/10 18:57:08;;;;;;;1.85;0.60;;;20.90;99.90;;;;;;20677671;28;20057;-39
2022/06/10 19:07:15;;;;;;;2.47;0.85;;;20.60;99.90;;;;;;20690408;28;20472;-39
2022/06/10 19:17:29;;;;;;;1.80;0.85;;;20.60;99.90;;;;;;20686893;28;20093;-39
2022/06/10 19:27:35;;;;;;;1.58;0.70;;;20.30;99.90;;;;;;20685093;28;20524;-39
2022/06/10 19:37:41;;;;;;;1.88;0.77;;;20.10;99.90;;;;;;20690685;28;20112;-39
2022/06/10 19:47:52;;;;;;;1.50;0.88;;;19.90;99.90;;;;;;20690179;28;20079;-39
2022/06/10 19:57:55;;;;;;;3.70;0.70;;;19.80;99.90;;;;;;20688239;28;20049;-39
2022/06/10 20:07:57;;;;;;;1.70;1.02;;;19.50;99.90;;;;;;20688810;28;20049;-39
2022/06/10 20:17:58;;;;;;;2.35;0.43;;;19.50;99.90;;;;;;20695223;28;20049;-39
2022/06/10 20:28:00;;;;;;;5.13;1.08;;;19.30;99.90;;;;;;20670698;28;20389;-39
2022/06/10 20:38:05;;;;;;;1.95;0.90;;;19.10;99.90;;;;;;20689251;28;20121;-39
2022/06/10 20:48:15;;;;;;;3.03;1.20;;;19.00;99.90;;;;;;20678545;28;20418;-39
2022/06/10 20:58:32;;;;;;;1.98;0.77;;;18.70;99.90;;;;;;20701060;28;20065;-39
2022/06/10 21:08:33;;;;;;;2.42;1.05;;;18.50;99.90;;;;;;20713057;28;20038;-39
2022/06/10 21:18:37;;;;;;;1.75;0.88;;;18.40;99.90;;;;;;20711243;28;20046;-39
2022/06/10 21:28:38;;;;;;;2.63;1.08;;;18.40;99.90;;;;;;20699219;28;20279;-39
2022/06/10 21:38:39;;;;;;;2.65;1.20;;;18.20;99.90;;;;;;20712811;28;20029;-39
2022/06/10 21:48:46;;;;;;;2.15;0.95;;;18.10;99.90;;;;;;20713956;28;20038;-39
2022/06/10 21:58:49;;;;;;;2.40;1.30;;;18.10;99.90;;;;;;20708496;28;20037;-39
2022/06/10 22:08:56;;;;;;;3.35;1.58;;;17.90;99.90;;;;;;20709539;28;20373;-39
2022/06/10 22:18:59;;;;;;;1.63;0.90;;;17.80;99.90;;;;;;20707758;28;20058;-39
2022/06/10 22:29:01;;;;;;;2.50;1.35;;;17.70;99.90;;;;;;20719536;28;20045;-39
2022/06/10 22:39:02;;;;;;;4.70;2.22;;;17.60;99.90;;;;;;20723285;28;20045;-39
2022/06/10 22:49:07;;;;;;;2.17;1.15;;;17.60;99.90;;;;;;20732611;28;20049;-39
2022/06/10 22:59:08;;;;;;;2.95;1.08;;;17.50;99.90;;;;;;20723669;28;20050;-39
2022/06/10 23:19:45;;;;;;;2.90;1.25;;;17.10;99.90;;;;;;20722147;28;20683;-39
2022/06/10 23:29:47;;;;;;;7.07;1.20;;;17.00;99.90;;;;;;20710729;28;20046;-39
2022/06/10 23:39:48;;;;;;;2.97;1.23;;;16.90;99.90;;;;;;20720308;28;20037;-39
